Time;durP1;ratioP1;P1;durP2;ratioP2;P2;SDS_P1;SDS_P2;PMS_P1;PMS_P2;Temp;Humidity;BMP_temperature;BMP_pressure;BME280_temperature;BME280_humidity;BME280_pressure;Samples;Min_cycle;Max_cycle;Signal;HPM_P1;HPM_P2
2022/01/08 00:02:06;;;;;;;25.12;8.98;;;;;;;-0.59;57.20;100276.16;4367511;32;33115;-88
2022/01/08 00:04:34;;;;;;;22.48;9.50;;;;;;;-0.45;56.79;100273.69;4342552;32;32791;-90
2022/01/08 00:07:02;;;;;;;22.75;10.93;;;;;;;-0.40;57.04;100264.19;4351881;32;33255;-90
2022/01/08 00:09:30;;;;;;;26.12;10.82;;;;;;;-0.52;57.48;100264.13;4337438;32;33728;-90
2022/01/08 00:11:59;;;;;;;26.67;11.57;;;;;;;-0.45;57.49;100254.66;4342344;32;32716;-89
2022/01/08 00:14:28;;;;;;;34.92;14.18;;;;;;;-0.42;57.70;100254.69;4353785;32;32549;-90
2022/01/08 00:16:58;;;;;;;33.28;14.52;;;;;;;-0.30;57.44;100249.56;4342123;32;33670;-89
2022/01/08 00:19:26;;;;;;;39.25;15.85;;;;;;;-0.07;57.08;100255.78;4327460;32;33359;-90
2022/01/08 00:21:53;;;;;;;39.30;15.05;;;;;;;-0.02;56.40;100246.31;4342387;32;33469;-89
2022/01/08 00:24:22;;;;;;;31.80;13.95;;;;;;;0.19;55.81;100249.88;4355831;32;33072;-89
2022/01/08 00:26:53;;;;;;;29.98;13.48;;;;;;;0.24;55.54;100246.47;4354406;32;33583;-89
2022/01/08 00:29:20;;;;;;;29.98;12.27;;;;;;;-0.09;56.84;100254.06;4354359;32;32786;-90
2022/01/08 00:32:14;;;;;;;24.60;11.90;;;;;;;0.25;55.92;100253.41;4363603;32;32211;-90
2022/01/08 00:34:46;;;;;;;19.30;9.35;;;;;;;0.20;55.87;100247.31;4377511;32;33188;-90
2022/01/08 00:37:38;;;;;;;21.87;9.35;;;;;;;0.21;55.92;100243.84;4363037;32;32506;-89
2022/01/08 00:40:08;;;;;;;23.40;9.73;;;;;;;-0.06;57.00;100247.13;4341970;32;32842;-89
2022/01/08 00:42:37;;;;;;;24.17;10.32;;;;;;;-0.05;57.14;100229.84;4351819;32;32810;-89
2022/01/08 00:45:05;;;;;;;26.30;11.05;;;;;;;0.07;56.94;100229.91;4340938;32;33287;-89
2022/01/08 00:47:34;;;;;;;20.55;10.45;;;;;;;-0.10;57.43;100237.59;4340745;32;33377;-89
2022/01/08 00:50:05;;;;;;;23.05;8.95;;;;;;;-0.24;58.24;100228.84;4351181;32;33283;-92
2022/01/08 00:52:45;;;;;;;29.55;10.30;;;;;;;-0.15;57.74;100223.72;4337059;33;32288;-91
2022/01/08 00:56:08;;;;;;;22.87;10.52;;;;;;;-0.04;57.48;100216.87;4374943;32;32759;-92
2022/01/08 00:58:47;;;;;;;23.08;10.25;;;;;;;0.17;56.55;100205.72;4375241;32;32917;-90
2022/01/08 01:01:39;;;;;;;30.98;13.55;;;;;;;0.12;56.28;100211.78;4363804;32;33093;-91
2022/01/08 01:04:18;;;;;;;28.80;12.85;;;;;;;0.18;56.29;100210.06;4344473;32;33133;-91
2022/01/08 01:07:10;;;;;;;33.28;14.27;;;;;;;-0.03;56.90;100207.38;4359605;32;32565;-90
2022/01/08 01:09:50;;;;;;;38.47;13.43;;;;;;;0.09;56.71;100207.41;4378395;32;33629;-89
2022/01/08 01:12:42;;;;;;;35.95;15.05;;;;;;;-0.02;56.77;100185.72;4383990;32;32928;-91
2022/01/08 01:15:21;;;;;;;34.97;12.63;;;;;;;0.05;56.62;100177.13;4389333;32;33349;-92
2022/01/08 01:18:16;;;;;;;35.00;15.00;;;;;;;0.12;56.07;100176.28;4369117;32;34301;-90
2022/01/08 01:20:55;;;;;;;41.47;15.02;;;;;;;0.03;56.69;100172.78;4387351;32;32413;-94
2022/01/08 01:23:47;;;;;;;34.70;15.13;;;;;;;0.03;56.52;100178.84;4361822;32;33129;-92
2022/01/08 01:26:29;;;;;;;22.48;9.90;;;;;;;0.12;56.44;100178.88;4382420;32;33522;-92
2022/01/08 01:47:10;;;;;;;20.75;8.93;;;;;;;-0.24;58.40;100156.19;4396147;32;32664;-91
2022/01/08 01:49:49;;;;;;;24.67;10.65;;;;;;;-0.24;57.87;100157.91;4380268;32;32599;-93
2022/01/08 01:52:41;;;;;;;27.02;10.45;;;;;;;-0.39;57.88;100150.91;4388589;32;32539;-93
2022/01/08 01:55:21;;;;;;;29.70;10.10;;;;;;;-0.22;57.27;100148.44;4408971;32;33902;-94
2022/01/08 01:58:15;;;;;;;20.15;10.70;;;;;;;-0.47;57.64;100143.09;4374242;32;34038;-94
2022/01/08 02:00:54;;;;;;;26.45;9.98;;;;;;;-0.50;57.93;100143.06;4352857;32;32421;-93
2022/01/08 02:03:46;;;;;;;21.75;11.07;;;;;;;-0.13;56.58;100145.87;4378811;32;33374;-93
2022/01/08 02:06:25;;;;;;;30.40;12.60;;;;;;;-0.28;56.54;100144.09;4375999;32;33160;-92
2022/01/08 02:09:17;;;;;;;21.17;10.07;;;;;;;-0.70;57.46;100149.84;4368677;32;32441;-94
2022/01/08 02:12:06;;;;;;;16.58;9.40;;;;;;;-0.59;57.76;100137.81;4390026;32;32727;-93
2022/01/08 02:14:58;;;;;;;23.98;10.05;;;;;;;-0.33;56.54;100141.47;4366480;32;32750;-94
2022/01/08 02:17:38;;;;;;;25.25;10.82;;;;;;;-0.61;57.14;100134.38;4358058;32;32963;-94
2022/01/08 02:20:30;;;;;;;34.38;13.18;;;;;;;-0.61;56.79;100142.16;4363346;32;32905;-93
2022/01/08 02:23:10;;;;;;;25.92;12.60;;;;;;;-0.75;57.00;100136.84;4376291;32;32395;-93
2022/01/08 02:26:03;;;;;;;24.25;10.35;;;;;;;-0.91;57.36;100134.97;4375148;32;33136;-92
2022/01/08 02:28:42;;;;;;;20.27;9.55;;;;;;;-0.98;57.42;100139.25;4352173;32;33414;-89
2022/01/08 02:31:22;;;;;;;24.30;10.93;;;;;;;-0.95;57.08;100128.94;4358998;32;34727;-88
2022/01/08 02:33:51;;;;;;;21.15;11.32;;;;;;;-1.28;57.75;100134.69;4362085;32;33575;-89
2022/01/08 02:36:26;;;;;;;23.60;10.75;;;;;;;-1.04;57.17;100132.31;4339174;32;33165;-89
2022/01/08 02:39:06;;;;;;;30.30;11.57;;;;;;;-0.70;56.01;100129.09;4389181;32;32882;-89
2022/01/08 02:41:59;;;;;;;26.40;10.73;;;;;;;-0.67;55.89;100118.75;4355274;32;32731;-91
2022/01/08 02:44:43;;;;;;;27.10;9.93;;;;;;;-0.89;56.05;100123.78;4379346;32;32734;-93
2022/01/08 02:47:35;;;;;;;20.42;10.23;;;;;;;-0.95;56.11;100123.75;4385014;32;32662;-93
2022/01/08 02:50:15;;;;;;;28.55;11.80;;;;;;;-1.09;56.38;100130.53;4380225;32;33747;-92
2022/01/08 02:53:07;;;;;;;21.98;11.35;;;;;;;-0.96;55.97;100124.56;4350670;32;31799;-93
2022/01/08 02:55:50;;;;;;;27.48;11.48;;;;;;;-1.44;57.59;100132.78;4371506;32;32651;-93
2022/01/08 02:58:42;;;;;;;26.75;11.48;;;;;;;-1.38;57.55;100122.47;4382636;32;32773;-93
2022/01/08 03:01:21;;;;;;;19.58;9.02;;;;;;;-1.18;56.57;100110.59;4421516;32;32783;-91
2022/01/08 03:04:12;;;;;;;21.92;9.88;;;;;;;-1.39;57.04;100126.78;4361082;32;32227;-94
2022/01/08 03:06:52;;;;;;;19.45;9.43;;;;;;;-1.12;56.28;100120.12;4391876;32;33319;-94
2022/01/08 03:10:08;;;;;;;19.35;9.52;;;;;;;-1.61;57.62;100119.69;4366136;32;32576;-92
2022/01/08 03:12:47;;;;;;;21.37;8.18;;;;;;;-1.68;57.65;100125.63;4380651;32;32761;-91
2022/01/08 03:15:39;;;;;;;19.52;9.60;;;;;;;-1.71;58.19;100120.41;4370413;32;32880;-92
2022/01/08 03:18:19;;;;;;;19.37;9.15;;;;;;;-2.37;59.57;100119.63;4397626;32;32759;-90
2022/01/08 03:21:00;;;;;;;20.20;8.73;;;;;;;-1.87;57.96;100128.00;4382319;32;33074;-91
2022/01/08 03:23:55;;;;;;;29.80;8.15;;;;;;;-1.83;58.06;100127.19;4397391;32;33272;-93
2022/01/08 03:26:48;;;;;;;24.02;9.75;;;;;;;-1.82;58.06;100128.91;4353452;32;34392;-91
2022/01/08 03:29:42;;;;;;;21.55;9.18;;;;;;;-2.21;59.06;100126.72;4393189;32;33831;-93
2022/01/08 03:32:35;;;;;;;21.30;9.25;;;;;;;-2.25;59.72;100121.50;4365677;32;32996;-91
2022/01/08 03:35:12;;;;;;;19.92;9.13;;;;;;;-2.11;59.03;100127.72;4362411;32;34113;-91
2022/01/08 03:38:00;;;;;;;17.50;9.65;;;;;;;-2.08;59.06;100130.34;4354167;32;32770;-89
2022/01/08 03:40:28;;;;;;;21.33;8.85;;;;;;;-2.21;59.54;100129.31;4350479;32;32172;-91
2022/01/08 03:43:24;;;;;;;19.25;8.13;;;;;;;-2.04;58.52;100139.88;4358294;32;32581;-92
2022/01/08 03:46:04;;;;;;;18.65;8.18;;;;;;;-2.18;58.75;100138.84;4396580;32;34072;-91
2022/01/08 03:51:41;;;;;;;32.13;11.93;;;;;;;-2.14;59.70;100148.34;4352058;32;32366;-90
2022/01/08 03:54:32;;;;;;;43.78;13.10;;;;;;;-1.89;58.78;100142.66;4391366;32;32980;-90
2022/01/08 03:57:11;;;;;;;27.62;10.13;;;;;;;-2.08;58.65;100145.87;4397532;32;34223;-91
2022/01/08 04:00:04;;;;;;;33.33;11.73;;;;;;;-2.10;58.34;100145.81;4354597;32;33705;-93
2022/01/08 04:03:04;;;;;;;30.25;12.05;;;;;;;-1.98;57.83;100134.78;4385820;32;32789;-91
2022/01/08 04:05:48;;;;;;;33.88;11.65;;;;;;;-1.79;56.95;100135.00;4365579;32;33172;-91
2022/01/08 04:08:40;;;;;;;38.88;14.85;;;;;;;-1.66;56.54;100131.69;4362525;32;32688;-91
2022/01/08 04:11:19;;;;;;;41.75;13.02;;;;;;;-1.60;56.19;100121.41;4395838;32;32806;-90
2022/01/08 04:14:10;;;;;;;34.55;13.15;;;;;;;-2.16;58.51;100121.59;4364314;32;33088;-90
2022/01/08 04:16:52;;;;;;;56.30;17.55;;;;;;;-2.17;57.70;100123.34;4393206;32;32890;-89
2022/01/08 04:19:44;;;;;;;46.08;16.67;;;;;;;-2.16;57.72;100119.03;4404067;32;33055;-89
2022/01/08 04:22:26;;;;;;;45.03;16.73;;;;;;;-1.93;56.91;100109.81;4382321;32;33061;-91
2022/01/08 04:25:20;;;;;;;52.55;17.77;;;;;;;-1.99;57.16;100104.59;4376148;32;32220;-90
2022/01/08 04:28:05;;;;;;;38.55;14.68;;;;;;;-2.17;57.75;100101.78;4353602;32;33598;-90
2022/01/08 04:30:56;;;;;;;33.95;12.07;;;;;;;-2.07;57.28;100104.47;4404741;32;32797;-91
2022/01/08 04:33:35;;;;;;;30.42;10.98;;;;;;;-2.10;57.66;100103.56;4368375;32;34554;-91
2022/01/08 04:36:27;;;;;;;28.98;10.63;;;;;;;-1.92;57.23;100098.63;4412227;32;32655;-89
2022/01/08 04:38:55;;;;;;;17.17;8.43;;;;;;;-2.12;57.80;100092.34;4413735;32;32782;-89
2022/01/08 04:41:54;;;;;;;21.62;7.22;;;;;;;-1.96;57.52;100086.50;4368090;32;33109;-91
2022/01/08 04:44:35;;;;;;;20.75;7.22;;;;;;;-2.04;58.05;100069.12;4374029;32;34614;-92
2022/01/08 04:47:26;;;;;;;13.05;6.72;;;;;;;-2.04;57.83;100075.19;4379214;32;20129;-89
2022/01/08 04:50:12;;;;;;;17.33;7.43;;;;;;;-2.05;57.59;100076.03;4384660;32;32711;-90
2022/01/08 04:53:03;;;;;;;22.27;8.02;;;;;;;-2.07;58.32;100072.56;4414271;32;33143;-90
2022/01/08 04:55:42;;;;;;;20.08;7.43;;;;;;;-2.06;58.50;100074.31;4380717;32;32872;-90
2022/01/08 04:58:33;;;;;;;16.40;8.32;;;;;;;-2.37;59.16;100080.84;4401715;32;33296;-89
2022/01/08 05:01:14;;;;;;;23.70;7.32;;;;;;;-1.83;57.38;100067.66;4384567;32;32806;-91
2022/01/08 05:03:42;;;;;;;15.77;6.15;;;;;;;-1.99;57.62;100055.41;4397933;32;33871;-92
2022/01/08 05:06:26;;;;;;;14.05;6.95;;;;;;;-2.28;58.75;100065.41;4380227;32;32682;-90
2022/01/08 05:09:25;;;;;;;17.92;6.97;;;;;;;-2.27;58.36;100063.72;4402630;32;32614;-90
2022/01/08 05:12:05;;;;;;;19.58;7.35;;;;;;;-2.21;58.13;100061.19;4420848;32;34763;-90
2022/01/08 05:14:57;;;;;;;20.42;7.80;;;;;;;-2.10;57.94;100062.19;4371783;32;34554;-92
2022/01/08 05:17:39;;;;;;;23.50;7.95;;;;;;;-2.05;57.95;100073.44;4421796;32;32832;-92
2022/01/08 05:20:33;;;;;;;18.85;8.18;;;;;;;-2.24;59.08;100074.06;4385015;32;32447;-91
2022/01/08 05:23:13;;;;;;;19.40;7.47;;;;;;;-2.25;59.32;100062.00;4371517;32;30084;-90
2022/01/08 05:26:04;;;;;;;17.05;7.47;;;;;;;-1.91;58.28;100074.47;4376908;32;33676;-90
2022/01/08 05:28:44;;;;;;;18.40;7.72;;;;;;;-1.98;58.06;100072.69;4365091;32;33801;-92
2022/01/08 05:31:43;;;;;;;18.05;8.80;;;;;;;-2.01;58.63;100076.94;4355427;32;32029;-92
2022/01/08 05:34:26;;;;;;;17.87;7.55;;;;;;;-2.07;59.14;100083.78;4363463;32;34664;-91
2022/01/08 05:37:15;;;;;;;16.02;6.70;;;;;;;-2.35;59.73;100072.22;4361270;32;32505;-94
2022/01/08 05:39:57;;;;;;;17.45;7.82;;;;;;;-2.20;59.52;100073.28;4368233;32;34149;-94
2022/01/08 05:42:48;;;;;;;14.60;7.18;;;;;;;-2.25;58.91;100067.16;4386506;32;32320;-94
2022/01/08 05:45:28;;;;;;;16.20;7.05;;;;;;;-2.07;58.57;100070.84;4361771;32;33295;-93
2022/01/08 05:48:10;;;;;;;14.63;6.40;;;;;;;-2.11;58.36;100066.47;4357305;32;33235;-94
2022/01/08 05:51:01;;;;;;;13.85;6.30;;;;;;;-2.02;58.36;100064.88;4352434;32;33793;-93
2022/01/08 05:53:40;;;;;;;13.60;6.95;;;;;;;-2.03;58.38;100068.31;4405381;32;32629;-91
2022/01/08 05:56:34;;;;;;;18.75;7.18;;;;;;;-1.81;57.65;100075.44;4365812;32;34374;-89
2022/01/08 05:59:16;;;;;;;11.77;6.32;;;;;;;-1.72;57.17;100070.34;4361725;32;33647;-89
2022/01/08 06:02:09;;;;;;;14.40;7.25;;;;;;;-1.60;56.87;100079.97;4327706;33;32749;-91
2022/01/08 06:04:50;;;;;;;15.63;6.07;;;;;;;-1.69;56.96;100085.06;4362268;32;32127;-91
2022/01/08 06:07:30;;;;;;;16.33;7.45;;;;;;;-1.54;56.61;100090.38;4348258;32;33887;-91
2022/01/08 06:10:22;;;;;;;16.37;7.18;;;;;;;-1.48;55.95;100098.19;4336066;32;33791;-91
2022/01/08 06:13:01;;;;;;;13.07;6.15;;;;;;;-2.04;57.73;100111.44;4354476;32;33500;-91
2022/01/08 06:15:53;;;;;;;14.65;6.60;;;;;;;-2.04;57.29;100111.44;4361854;32;31978;-90
2022/01/08 06:18:32;;;;;;;15.85;7.40;;;;;;;-2.22;57.50;100119.81;4367592;32;34365;-90
2022/01/08 06:21:07;;;;;;;18.87;6.80;;;;;;;-1.89;56.59;100118.50;4378265;32;33098;-91
2022/01/08 06:23:50;;;;;;;13.30;7.15;;;;;;;-2.17;57.14;100122.47;4384293;32;33981;-91
2022/01/08 06:26:34;;;;;;;11.65;6.68;;;;;;;-2.15;57.00;100115.59;4371025;32;31660;-89
2022/01/08 06:29:18;;;;;;;18.30;7.40;;;;;;;-2.35;57.52;100121.38;4374297;32;33773;-88
2022/01/08 06:31:46;;;;;;;15.73;6.10;;;;;;;-2.09;57.02;100113.97;4367128;32;33270;-88
2022/01/08 06:34:14;;;;;;;10.45;6.60;;;;;;;-2.44;57.11;100117.78;4378571;32;33516;-88
2022/01/08 06:36:41;;;;;;;12.13;6.15;;;;;;;-2.33;56.70;100111.94;4369447;32;33359;-89
2022/01/08 06:39:09;;;;;;;11.07;6.50;;;;;;;-2.53;57.17;100107.31;4374135;32;32741;-86
2022/01/08 06:41:37;;;;;;;11.02;5.50;;;;;;;-2.20;56.06;100099.13;4364248;32;32817;-85
2022/01/08 06:44:05;;;;;;;14.45;6.78;;;;;;;-2.45;56.93;100109.16;4373505;32;33256;-85
2022/01/08 06:46:33;;;;;;;20.37;7.03;;;;;;;-2.36;57.32;100111.87;4379828;32;33111;-91
2022/01/08 06:49:13;;;;;;;16.42;6.70;;;;;;;-2.24;56.92;100107.69;4380590;32;32979;-87
2022/01/08 06:51:59;;;;;;;15.07;6.82;;;;;;;-2.08;56.38;100099.31;4388866;32;32853;-89
2022/01/08 06:54:27;;;;;;;22.70;8.50;;;;;;;-2.44;57.73;100097.09;4394047;32;32299;-89
2022/01/08 06:56:55;;;;;;;16.15;7.93;;;;;;;-2.37;58.14;100093.75;4387380;32;32573;-87
2022/01/08 06:59:22;;;;;;;18.23;7.53;;;;;;;-2.50;58.85;100097.91;4373664;32;33962;-88
2022/01/08 07:01:50;;;;;;;19.12;8.05;;;;;;;-1.92;56.77;100098.63;4374747;32;33067;-88
2022/01/08 07:04:18;;;;;;;16.58;7.30;;;;;;;-2.22;57.59;100099.13;4370008;32;33366;-87
2022/01/08 07:06:46;;;;;;;17.40;8.10;;;;;;;-2.19;57.33;100095.69;4383151;32;34386;-87
2022/01/08 07:09:18;;;;;;;18.30;8.60;;;;;;;-2.34;57.67;100094.66;4366227;32;34287;-87
2022/01/08 07:11:59;;;;;;;18.50;9.05;;;;;;;-2.50;58.46;100087.56;4378805;32;34054;-87
2022/01/08 07:14:42;;;;;;;18.50;8.07;;;;;;;-2.45;58.41;100083.31;4387325;32;33181;-87
2022/01/08 07:18:34;;;;;;;18.42;7.97;;;;;;;-2.04;57.12;100079.47;4334529;33;34034;-85
2022/01/08 07:21:59;;;;;;;19.00;9.57;;;;;;;-2.34;57.94;100081.72;4311838;33;32976;-85
2022/01/08 07:25:30;;;;;;;20.58;8.95;;;;;;;-2.15;57.79;100081.94;4319173;32;34881;-84
2022/01/08 07:33:06;;;;;;;22.85;11.48;;;;;;;-2.06;57.88;100074.31;4308055;33;32830;-84
2022/01/08 07:36:33;;;;;;;27.75;11.40;;;;;;;-2.11;58.48;100070.78;4336249;32;33506;-84
2022/01/08 07:39:42;;;;;;;18.05;9.10;;;;;;;-1.89;58.06;100077.97;4333498;32;34588;-84
2022/01/08 07:46:14;;;;;;;17.52;9.88;;;;;;;-1.99;58.78;100078.72;4330442;32;32077;-84
2022/01/08 07:49:09;;;;;;;22.77;9.35;;;;;;;-1.66;58.11;100083.38;4357764;32;34260;-84
2022/01/08 07:52:53;;;;;;;27.67;11.48;;;;;;;-1.57;58.14;100070.53;4346752;32;34090;-85
2022/01/08 07:55:43;;;;;;;22.13;10.63;;;;;;;-1.34;57.60;100052.56;4359285;32;34529;-85
2022/01/08 07:58:16;;;;;;;18.87;9.57;;;;;;;-1.45;58.66;100049.03;4359076;32;32171;-85
2022/01/08 08:01:27;;;;;;;22.58;8.85;;;;;;;-1.54;59.08;100051.53;4359052;32;36087;-84
2022/01/08 08:05:09;;;;;;;15.30;8.00;;;;;;;-1.01;57.45;100043.31;4335811;32;33417;-85
2022/01/08 08:08:18;;;;;;;15.30;8.18;;;;;;;-0.49;55.82;100046.22;4319842;33;35448;-85
2022/01/08 08:11:01;;;;;;;17.50;8.57;;;;;;;-0.61;56.67;100036.69;4336944;33;32454;-85
2022/01/08 08:14:06;;;;;;;14.60;7.12;;;;;;;-0.59;56.65;100039.25;4340711;32;34734;-85
2022/01/08 08:17:33;;;;;;;17.83;8.18;;;;;;;-0.23;56.19;100035.97;4323152;33;34244;-84
2022/01/08 08:20:52;;;;;;;;;;;;;;;;;;;;;
2022/01/08 08:25:34;;;;;;;;;;;;;;;;;;;;;
2022/01/08 08:29:13;;;;;;;16.42;9.10;;;;;;;0.25;54.60;100011.88;4384341;32;35166;-85
2022/01/08 08:33:07;;;;;;;31.10;11.02;;;;;;;0.39;53.85;100013.63;4358772;32;34344;-84
2022/01/08 08:36:18;;;;;;;29.25;11.15;;;;;;;0.79;53.28;100003.22;4351929;32;33859;-85
2022/01/08 08:43:42;;;;;;;19.25;8.98;;;;;;;0.73;52.85;99997.16;4310796;33;34108;-85
2022/01/08 08:49:59;;;;;;;25.08;10.13;;;;;;;0.62;54.04;99996.31;4359940;32;34394;-85
2022/01/08 09:05:34;;;;;;;27.58;11.82;;;;;;;0.49;55.06;100017.94;4184283;34;32835;-85
2022/01/08 09:10:46;;;;;;;24.05;11.52;;;;;;;0.88;53.33;100003.19;4154106;34;34421;-85
2022/01/08 09:14:03;;;;;;;42.60;13.10;;;;;;;1.17;53.04;99996.22;4151405;34;34673;-85
2022/01/08 09:17:11;;;;;;;32.95;15.63;;;;;;;1.14;53.91;99991.03;4166300;34;35041;-85
2022/01/08 09:23:38;;;;;;;29.37;12.25;;;;;;;1.79;50.99;99976.88;4187346;33;35021;-85
2022/01/08 09:26:08;;;;;;;22.58;10.68;;;;;;;1.74;50.97;99985.59;4243016;33;33371;-85
2022/01/08 09:28:37;;;;;;;24.00;10.07;;;;;;;1.66;51.01;99984.75;4294819;33;32890;-85
2022/01/08 09:31:05;;;;;;;28.25;11.68;;;;;;;1.63;51.97;99975.25;4275790;33;33641;-84
2022/01/08 09:33:33;;;;;;;27.87;12.90;;;;;;;1.63;52.24;99975.25;4303888;33;33736;-85
2022/01/08 09:36:00;;;;;;;27.27;11.98;;;;;;;1.79;52.09;99961.25;4350479;32;32296;-86
2022/01/08 09:38:28;;;;;;;23.30;10.85;;;;;;;1.88;52.01;99959.47;4378006;32;33083;-85
2022/01/08 09:40:56;;;;;;;23.75;10.40;;;;;;;1.93;51.21;99962.91;4364418;32;35010;-85
2022/01/08 09:43:24;;;;;;;38.10;11.05;;;;;;;1.87;50.92;99953.41;4377486;32;32809;-85
2022/01/08 09:45:52;;;;;;;39.15;14.13;;;;;;;1.85;51.39;99952.53;4361894;32;34408;-84
2022/01/08 09:48:20;;;;;;;37.53;13.48;;;;;;;1.94;51.19;99946.41;4371787;32;33946;-85
2022/01/08 09:50:48;;;;;;;41.95;18.02;;;;;;;2.02;50.44;99949.84;4350793;32;31513;-84
2022/01/08 09:53:15;;;;;;;32.40;15.00;;;;;;;2.02;50.84;99945.50;4375854;32;33152;-84
2022/01/08 09:55:43;;;;;;;58.70;18.17;;;;;;;2.05;51.12;99948.09;4374503;32;32851;-86
2022/01/08 09:58:11;;;;;;;42.35;15.75;;;;;;;2.18;50.83;99955.81;4361514;32;34436;-86
2022/01/08 10:00:40;;;;;;;24.02;11.12;;;;;;;2.12;50.28;99951.50;4362502;32;32952;-86
2022/01/08 10:03:18;;;;;;;55.67;20.52;;;;;;;2.13;50.39;99950.63;4377550;32;33546;-86
2022/01/08 10:05:51;;;;;;;31.10;15.57;;;;;;;2.23;50.79;99941.00;4358748;32;34601;-86
2022/01/08 10:08:43;;;;;;;22.48;12.57;;;;;;;1.96;51.33;99939.47;4372836;32;32219;-86
2022/01/08 10:11:13;;;;;;;24.00;10.63;;;;;;;2.19;51.77;99929.75;4360248;32;33192;-86
2022/01/08 10:13:42;;;;;;;20.05;10.98;;;;;;;2.36;50.77;99928.75;4362015;32;32917;-86
2022/01/08 10:19:01;;;;;;;19.17;9.40;;;;;;;2.91;49.69;99920.41;4376691;32;33564;-86
2022/01/08 10:21:33;;;;;;;11.52;7.90;;;;;;;2.91;48.83;99917.81;4349962;32;33114;-86
2022/01/08 10:24:04;;;;;;;54.22;19.30;;;;;;;3.03;49.28;99915.91;4374838;32;32908;-86
2022/01/08 10:26:35;;;;;;;31.77;13.55;;;;;;;3.12;48.57;99909.72;4375082;32;33891;-86
2022/01/08 10:29:12;;;;;;;57.08;22.33;;;;;;;3.07;48.68;99909.78;4361706;32;32704;-86
2022/01/08 10:31:46;;;;;;;31.52;14.87;;;;;;;3.12;48.46;99911.47;4349921;32;32888;-86
2022/01/08 10:34:16;;;;;;;19.37;9.98;;;;;;;3.10;48.31;99911.50;4374567;32;34812;-86
2022/01/08 10:36:49;;;;;;;29.12;13.38;;;;;;;2.97;49.02;99917.72;4366563;32;34384;-86
2022/01/08 10:39:19;;;;;;;25.83;11.80;;;;;;;2.81;49.50;99930.09;4374982;32;34143;-85
2022/01/08 10:41:50;;;;;;;30.23;12.13;;;;;;;2.69;50.48;99918.00;4367039;32;32973;-86
2022/01/08 10:44:21;;;;;;;41.88;17.75;;;;;;;2.93;49.48;99913.44;4361815;32;32869;-86
2022/01/08 10:47:22;;;;;;;24.90;13.50;;;;;;;2.91;50.06;99912.59;4349727;32;33241;-86
2022/01/08 10:50:02;;;;;;;20.12;10.27;;;;;;;2.80;50.40;99918.78;4348304;32;34250;-86
2022/01/08 10:52:41;;;;;;;19.98;9.75;;;;;;;2.95;49.86;99915.16;4368402;32;33022;-86
2022/01/08 10:55:09;;;;;;;25.58;10.50;;;;;;;3.07;49.81;99919.34;4362691;32;32609;-86
2022/01/08 10:57:40;;;;;;;19.92;10.32;;;;;;;3.21;49.42;99913.97;4379743;32;33104;-86
2022/01/08 11:00:11;;;;;;;24.98;11.55;;;;;;;3.42;48.58;99916.34;4361448;32;34716;-86
2022/01/08 11:02:43;;;;;;;17.45;9.68;;;;;;;3.50;47.85;99913.59;4380923;32;35205;-86
2022/01/08 11:05:12;;;;;;;24.37;10.73;;;;;;;3.38;48.27;99919.88;4362225;32;33300;-86
2022/01/08 11:07:41;;;;;;;19.25;8.82;;;;;;;3.51;47.01;99917.94;4362107;32;34021;-86
2022/01/08 11:10:16;;;;;;;20.67;9.05;;;;;;;3.28;47.17;99913.91;4362371;32;33324;-86
2022/01/08 11:12:46;;;;;;;21.52;8.90;;;;;;;3.13;48.21;99906.22;4362168;32;32210;-86
2022/01/08 11:15:48;;;;;;;16.17;8.07;;;;;;;3.14;48.19;99913.19;4378497;32;32514;-86
2022/01/08 11:18:18;;;;;;;15.30;7.62;;;;;;;3.10;47.90;99913.25;4374527;32;33148;-86
2022/01/08 11:20:55;;;;;;;12.63;7.20;;;;;;;2.49;50.46;99907.78;4374430;32;33917;-86
2022/01/08 11:23:25;;;;;;;18.35;7.97;;;;;;;2.53;50.21;99909.50;4381300;32;33890;-86
2022/01/08 11:25:55;;;;;;;11.27;7.05;;;;;;;2.89;49.21;99903.91;4356291;32;33344;-86
2022/01/08 11:28:34;;;;;;;15.85;7.47;;;;;;;3.06;48.23;99905.44;4373814;32;33555;-86
2022/01/08 11:31:02;;;;;;;13.95;6.93;;;;;;;3.24;47.94;99909.59;4362370;32;33841;-86
2022/01/08 11:33:34;;;;;;;10.60;6.22;;;;;;;3.40;47.66;99899.81;4379128;32;33320;-86
2022/01/08 11:36:02;;;;;;;17.20;7.68;;;;;;;3.47;46.83;99903.22;4367954;32;32700;-86
2022/01/08 11:38:30;;;;;;;17.85;6.65;;;;;;;3.44;47.17;99900.66;4362337;32;32639;-86
2022/01/08 11:40:59;;;;;;;17.87;8.32;;;;;;;3.40;47.56;99901.56;4349133;32;32406;-85
2022/01/08 11:43:29;;;;;;;14.95;7.62;;;;;;;3.36;47.55;99902.47;4381456;32;33811;-86
2022/01/08 11:46:06;;;;;;;14.25;6.93;;;;;;;3.63;46.50;99902.13;4369026;32;34087;-87
2022/01/08 11:48:37;;;;;;;15.90;7.05;;;;;;;3.85;45.86;99894.84;4366734;32;32708;-86
2022/01/08 11:51:06;;;;;;;17.10;8.05;;;;;;;4.03;45.14;99888.47;4361773;32;33941;-86
2022/01/08 11:53:55;;;;;;;11.70;6.87;;;;;;;4.07;45.01;99888.38;4381207;32;32513;-86
2022/01/08 11:56:26;;;;;;;12.07;6.35;;;;;;;4.07;44.72;99888.38;4379696;32;33262;-86
2022/01/08 11:59:11;;;;;;;13.60;6.80;;;;;;;4.01;45.14;99885.03;4361104;32;33028;-87
2022/01/08 12:01:43;;;;;;;15.48;7.50;;;;;;;3.88;46.02;99875.62;4380312;32;33497;-87
2022/01/08 12:04:33;;;;;;;10.60;5.80;;;;;;;4.22;44.12;99871.59;4374274;32;33411;-87
2022/01/08 12:07:36;;;;;;;11.55;6.40;;;;;;;4.12;45.17;99865.66;4361885;32;31725;-86
2022/01/08 12:10:20;;;;;;;31.25;13.10;;;;;;;4.04;45.25;99866.69;4373951;32;32633;-87
2022/01/08 12:12:49;;;;;;;17.12;9.32;;;;;;;4.28;44.06;99858.44;4362119;32;32930;-86
2022/01/08 12:15:40;;;;;;;13.23;6.62;;;;;;;4.34;44.59;99852.25;4373241;32;33976;-87
2022/01/08 12:18:10;;;;;;;13.52;7.15;;;;;;;4.29;44.45;99852.31;4373461;32;33447;-86
2022/01/08 12:20:49;;;;;;;13.32;6.20;;;;;;;4.23;45.17;99851.56;4365500;32;33865;-86
2022/01/08 12:23:25;;;;;;;12.27;6.97;;;;;;;4.28;44.61;99839.28;4374545;32;33235;-87
2022/01/08 12:25:54;;;;;;;13.05;6.70;;;;;;;4.47;44.04;99834.59;4362143;32;34134;-87
2022/01/08 12:28:42;;;;;;;15.20;6.93;;;;;;;4.36;44.14;99825.16;4365306;32;32206;-87
2022/01/08 12:31:45;;;;;;;15.20;7.97;;;;;;;4.40;44.46;99838.19;4377125;32;33247;-87
2022/01/08 12:34:29;;;;;;;16.73;8.52;;;;;;;4.72;43.13;99828.00;4361250;32;33706;-87
2022/01/08 12:36:58;;;;;;;17.35;8.65;;;;;;;4.08;44.45;99824.81;4361951;32;33886;-87
2022/01/08 12:39:41;;;;;;;13.43;6.32;;;;;;;4.55;43.37;99817.84;4365140;32;32841;-86
2022/01/08 12:42:19;;;;;;;10.82;5.57;;;;;;;4.45;41.97;99815.44;4373833;32;32977;-87
2022/01/08 12:44:59;;;;;;;11.75;5.25;;;;;;;4.28;41.99;99815.75;4373856;32;33993;-87
2022/01/08 12:47:49;;;;;;;12.82;5.75;;;;;;;4.36;41.73;99816.47;4374043;32;32411;-86
2022/01/08 12:50:31;;;;;;;13.68;6.03;;;;;;;4.39;42.03;99816.41;4374413;32;32583;-86
2022/01/08 12:53:09;;;;;;;17.70;8.15;;;;;;;4.22;42.86;99814.09;4382005;32;33231;-85
2022/01/08 12:55:57;;;;;;;13.23;7.00;;;;;;;4.20;42.54;99804.56;4385886;32;33007;-86
2022/01/08 12:58:31;;;;;;;16.10;7.20;;;;;;;4.42;42.23;99810.28;4373881;32;32985;-87
2022/01/08 13:01:00;;;;;;;17.60;7.07;;;;;;;4.68;40.81;99797.56;4373962;32;32701;-87
2022/01/08 13:03:56;;;;;;;276.95;77.30;;;;;;;4.61;40.72;99804.69;4373900;32;34677;-86
2022/01/08 13:06:33;;;;;;;49.22;25.08;;;;;;;4.53;41.25;99795.25;4365679;32;34013;-86
2022/01/08 13:09:03;;;;;;;17.85;9.40;;;;;;;4.59;41.01;99789.88;4371730;32;35030;-87
2022/01/08 13:11:33;;;;;;;18.87;8.15;;;;;;;4.24;42.16;99795.78;4373937;32;33932;-86
2022/01/08 13:14:04;;;;;;;16.08;8.23;;;;;;;4.41;42.37;99795.47;4371918;32;34213;-87
2022/01/08 13:16:49;;;;;;;14.57;7.50;;;;;;;4.34;43.66;99803.44;4369880;32;33634;-86
2022/01/08 13:19:18;;;;;;;15.93;7.72;;;;;;;4.36;43.69;99793.78;4359265;32;32336;-87
2022/01/08 13:21:51;;;;;;;10.30;5.97;;;;;;;4.77;40.82;99789.53;4348156;32;32418;-87
2022/01/08 13:24:30;;;;;;;104.28;43.92;;;;;;;4.90;40.05;99781.44;4373088;32;33406;-86
2022/01/08 13:27:00;;;;;;;31.85;13.93;;;;;;;4.86;40.02;99775.41;4348425;32;34202;-86
2022/01/08 13:33:04;;;;;;;12.15;6.93;;;;;;;4.37;40.38;99787.69;4374281;32;32366;-86
2022/01/08 13:35:33;;;;;;;12.48;6.70;;;;;;;4.59;40.77;99776.81;4375763;32;34421;-86
2022/01/08 13:38:01;;;;;;;10.63;6.65;;;;;;;4.63;40.96;99776.72;4383350;32;33956;-86